sensor_id;sensor_type;location;lat;lon;timestamp;P1;durP1;ratioP1;P2;durP2;ratioP2
18677;SDS011;9469;51.114;13.914;2023-08-06T00:02:43;8.20;;;5.70;;
18677;SDS011;9469;51.114;13.914;2023-08-06T00:07:48;6.67;;;5.60;;
18677;SDS011;9469;51.114;13.914;2023-08-06T00:12:54;7.13;;;5.27;;
18677;SDS011;9469;51.114;13.914;2023-08-06T00:18:02;7.30;;;5.90;;
18677;SDS011;9469;51.114;13.914;2023-08-06T00:23:07;7.07;;;5.80;;
18677;SDS011;9469;51.114;13.914;2023-08-06T00:28:15;6.67;;;5.23;;
18677;SDS011;9469;51.114;13.914;2023-08-06T00:33:22;6.77;;;5.83;;
18677;SDS011;9469;51.114;13.914;2023-08-06T00:38:29;6.27;;;5.57;;
18677;SDS011;9469;51.114;13.914;2023-08-06T00:43:36;6.13;;;5.50;;
18677;SDS011;9469;51.114;13.914;2023-08-06T00:48:44;5.57;;;5.07;;
18677;SDS011;9469;51.114;13.914;2023-08-06T00:53:49;5.27;;;4.77;;
18677;SDS011;9469;51.114;13.914;2023-08-06T00:58:57;7.13;;;6.43;;
18677;SDS011;9469;51.114;13.914;2023-08-06T01:04:05;8.80;;;5.90;;
18677;SDS011;9469;51.114;13.914;2023-08-06T01:09:15;8.63;;;6.50;;
18677;SDS011;9469;51.114;13.914;2023-08-06T01:14:37;6.97;;;5.90;;
18677;SDS011;9469;51.114;13.914;2023-08-06T01:19:59;5.87;;;5.33;;
18677;SDS011;9469;51.114;13.914;2023-08-06T01:25:08;6.83;;;5.70;;
18677;SDS011;9469;51.114;13.914;2023-08-06T01:30:15;5.80;;;5.13;;
18677;SDS011;9469;51.114;13.914;2023-08-06T01:35:22;5.00;;;4.60;;
18677;SDS011;9469;51.114;13.914;2023-08-06T01:40:35;5.63;;;4.87;;
18677;SDS011;9469;51.114;13.914;2023-08-06T01:45:41;5.47;;;4.97;;
18677;SDS011;9469;51.114;13.914;2023-08-06T01:50:47;5.00;;;3.90;;
18677;SDS011;9469;51.114;13.914;2023-08-06T01:55:55;4.90;;;4.10;;
18677;SDS011;9469;51.114;13.914;2023-08-06T02:01:01;5.67;;;4.60;;
18677;SDS011;9469;51.114;13.914;2023-08-06T02:06:08;4.83;;;4.33;;
18677;SDS011;9469;51.114;13.914;2023-08-06T02:11:15;4.87;;;4.40;;
18677;SDS011;9469;51.114;13.914;2023-08-06T02:16:21;4.53;;;3.83;;
18677;SDS011;9469;51.114;13.914;2023-08-06T02:21:29;5.27;;;4.73;;
18677;SDS011;9469;51.114;13.914;2023-08-06T02:26:37;4.40;;;3.70;;
18677;SDS011;9469;51.114;13.914;2023-08-06T02:31:43;4.60;;;4.20;;
18677;SDS011;9469;51.114;13.914;2023-08-06T02:36:48;5.03;;;4.17;;
18677;SDS011;9469;51.114;13.914;2023-08-06T02:41:56;6.03;;;5.43;;
18677;SDS011;9469;51.114;13.914;2023-08-06T02:47:01;5.13;;;4.63;;
18677;SDS011;9469;51.114;13.914;2023-08-06T02:52:07;5.27;;;4.80;;
18677;SDS011;9469;51.114;13.914;2023-08-06T02:57:17;6.53;;;5.03;;
18677;SDS011;9469;51.114;13.914;2023-08-06T03:02:24;6.17;;;4.77;;
18677;SDS011;9469;51.114;13.914;2023-08-06T03:07:35;7.03;;;5.20;;
18677;SDS011;9469;51.114;13.914;2023-08-06T03:12:52;5.20;;;4.70;;
18677;SDS011;9469;51.114;13.914;2023-08-06T03:17:58;5.47;;;4.97;;
18677;SDS011;9469;51.114;13.914;2023-08-06T03:23:03;6.40;;;5.80;;
18677;SDS011;9469;51.114;13.914;2023-08-06T03:28:12;6.17;;;5.40;;
18677;SDS011;9469;51.114;13.914;2023-08-06T03:33:17;5.53;;;4.73;;
18677;SDS011;9469;51.114;13.914;2023-08-06T03:38:25;5.70;;;5.20;;
18677;SDS011;9469;51.114;13.914;2023-08-06T03:43:33;5.03;;;4.60;;
18677;SDS011;9469;51.114;13.914;2023-08-06T03:48:42;4.73;;;4.27;;
18677;SDS011;9469;51.114;13.914;2023-08-06T03:53:51;5.07;;;4.40;;
18677;SDS011;9469;51.114;13.914;2023-08-06T03:58:59;4.37;;;3.97;;
18677;SDS011;9469;51.114;13.914;2023-08-06T04:04:04;4.07;;;3.70;;
18677;SDS011;9469;51.114;13.914;2023-08-06T04:09:12;4.23;;;3.80;;
18677;SDS011;9469;51.114;13.914;2023-08-06T04:14:21;3.83;;;3.53;;
18677;SDS011;9469;51.114;13.914;2023-08-06T04:19:26;4.33;;;3.93;;
18677;SDS011;9469;51.114;13.914;2023-08-06T04:24:31;4.73;;;4.23;;
18677;SDS011;9469;51.114;13.914;2023-08-06T04:29:39;6.13;;;4.43;;
18677;SDS011;9469;51.114;13.914;2023-08-06T04:34:45;3.97;;;3.63;;
18677;SDS011;9469;51.114;13.914;2023-08-06T04:39:52;4.73;;;4.30;;
18677;SDS011;9469;51.114;13.914;2023-08-06T04:45:00;4.40;;;4.00;;
18677;SDS011;9469;51.114;13.914;2023-08-06T04:50:06;4.50;;;4.10;;
18677;SDS011;9469;51.114;13.914;2023-08-06T04:55:14;4.47;;;3.83;;
18677;SDS011;9469;51.114;13.914;2023-08-06T05:00:24;4.90;;;3.73;;
18677;SDS011;9469;51.114;13.914;2023-08-06T05:05:29;3.33;;;3.07;;
18677;SDS011;9469;51.114;13.914;2023-08-06T05:10:35;3.53;;;3.23;;
18677;SDS011;9469;51.114;13.914;2023-08-06T05:15:43;4.10;;;3.70;;
18677;SDS011;9469;51.114;13.914;2023-08-06T05:20:48;3.43;;;2.87;;
18677;SDS011;9469;51.114;13.914;2023-08-06T05:25:55;3.37;;;3.07;;
18677;SDS011;9469;51.114;13.914;2023-08-06T05:31:05;3.10;;;2.90;;
18677;SDS011;9469;51.114;13.914;2023-08-06T05:36:10;3.57;;;3.27;;
18677;SDS011;9469;51.114;13.914;2023-08-06T05:41:16;4.40;;;4.00;;
18677;SDS011;9469;51.114;13.914;2023-08-06T05:46:25;3.67;;;3.37;;
18677;SDS011;9469;51.114;13.914;2023-08-06T05:51:30;3.40;;;3.07;;
18677;SDS011;9469;51.114;13.914;2023-08-06T05:56:35;2.83;;;2.63;;
18677;SDS011;9469;51.114;13.914;2023-08-06T06:01:43;2.93;;;2.73;;
18677;SDS011;9469;51.114;13.914;2023-08-06T06:06:48;2.90;;;2.70;;
18677;SDS011;9469;51.114;13.914;2023-08-06T06:11:53;3.40;;;2.60;;
18677;SDS011;9469;51.114;13.914;2023-08-06T06:17:01;3.53;;;3.23;;
18677;SDS011;9469;51.114;13.914;2023-08-06T06:22:07;3.27;;;2.40;;
18677;SDS011;9469;51.114;13.914;2023-08-06T06:27:12;3.10;;;2.90;;
18677;SDS011;9469;51.114;13.914;2023-08-06T06:32:20;2.77;;;2.37;;
18677;SDS011;9469;51.114;13.914;2023-08-06T06:37:27;2.83;;;2.63;;
18677;SDS011;9469;51.114;13.914;2023-08-06T06:42:35;2.60;;;2.40;;
18677;SDS011;9469;51.114;13.914;2023-08-06T06:47:46;3.80;;;2.70;;
18677;SDS011;9469;51.114;13.914;2023-08-06T06:52:52;2.80;;;2.60;;
18677;SDS011;9469;51.114;13.914;2023-08-06T06:58:07;3.10;;;2.87;;
18677;SDS011;9469;51.114;13.914;2023-08-06T07:03:15;3.23;;;2.93;;
18677;SDS011;9469;51.114;13.914;2023-08-06T07:08:20;3.43;;;2.77;;
18677;SDS011;9469;51.114;13.914;2023-08-06T07:13:25;4.50;;;4.10;;
18677;SDS011;9469;51.114;13.914;2023-08-06T07:18:33;4.23;;;3.30;;
18677;SDS011;9469;51.114;13.914;2023-08-06T07:23:38;3.30;;;3.10;;
18677;SDS011;9469;51.114;13.914;2023-08-06T07:28:46;3.70;;;3.40;;
18677;SDS011;9469;51.114;13.914;2023-08-06T07:33:55;3.97;;;3.23;;
18677;SDS011;9469;51.114;13.914;2023-08-06T07:39:00;3.80;;;3.50;;
18677;SDS011;9469;51.114;13.914;2023-08-06T07:44:08;4.60;;;3.33;;
18677;SDS011;9469;51.114;13.914;2023-08-06T07:49:16;4.50;;;3.63;;
18677;SDS011;9469;51.114;13.914;2023-08-06T07:54:23;6.13;;;4.13;;
18677;SDS011;9469;51.114;13.914;2023-08-06T07:59:33;5.83;;;5.00;;
18677;SDS011;9469;51.114;13.914;2023-08-06T08:04:41;5.33;;;4.60;;
18677;SDS011;9469;51.114;13.914;2023-08-06T08:09:49;6.93;;;5.20;;
18677;SDS011;9469;51.114;13.914;2023-08-06T08:14:54;6.77;;;5.70;;
18677;SDS011;9469;51.114;13.914;2023-08-06T08:20:02;6.37;;;5.77;;
18677;SDS011;9469;51.114;13.914;2023-08-06T08:25:08;7.00;;;5.67;;
18677;SDS011;9469;51.114;13.914;2023-08-06T08:30:13;9.73;;;6.70;;
18677;SDS011;9469;51.114;13.914;2023-08-06T08:35:21;6.80;;;5.97;;
18677;SDS011;9469;51.114;13.914;2023-08-06T08:40:32;6.83;;;6.17;;
18677;SDS011;9469;51.114;13.914;2023-08-06T08:45:39;6.33;;;5.70;;
18677;SDS011;9469;51.114;13.914;2023-08-06T08:50:53;6.73;;;6.13;;
18677;SDS011;9469;51.114;13.914;2023-08-06T08:56:00;8.10;;;6.57;;
18677;SDS011;9469;51.114;13.914;2023-08-06T09:01:06;7.30;;;6.03;;
18677;SDS011;9469;51.114;13.914;2023-08-06T09:06:16;6.53;;;5.93;;
18677;SDS011;9469;51.114;13.914;2023-08-06T09:11:24;7.23;;;5.80;;
18677;SDS011;9469;51.114;13.914;2023-08-06T09:16:33;6.43;;;5.33;;
18677;SDS011;9469;51.114;13.914;2023-08-06T09:21:45;6.43;;;5.77;;
18677;SDS011;9469;51.114;13.914;2023-08-06T09:26:51;7.43;;;5.43;;
18677;SDS011;9469;51.114;13.914;2023-08-06T09:31:56;5.27;;;4.03;;
18677;SDS011;9469;51.114;13.914;2023-08-06T09:37:07;4.93;;;4.40;;
18677;SDS011;9469;51.114;13.914;2023-08-06T09:42:15;5.60;;;4.80;;
18677;SDS011;9469;51.114;13.914;2023-08-06T09:47:21;4.50;;;4.07;;
18677;SDS011;9469;51.114;13.914;2023-08-06T09:52:36;3.70;;;3.40;;
18677;SDS011;9469;51.114;13.914;2023-08-06T09:57:43;4.67;;;3.40;;
18677;SDS011;9469;51.114;13.914;2023-08-06T10:02:49;4.40;;;3.53;;
18677;SDS011;9469;51.114;13.914;2023-08-06T10:07:59;3.37;;;3.07;;
18677;SDS011;9469;51.114;13.914;2023-08-06T10:13:06;3.20;;;2.90;;
18677;SDS011;9469;51.114;13.914;2023-08-06T10:18:13;2.67;;;2.47;;
18677;SDS011;9469;51.114;13.914;2023-08-06T10:23:35;4.07;;;3.07;;
18677;SDS011;9469;51.114;13.914;2023-08-06T10:28:44;4.83;;;3.97;;
18677;SDS011;9469;51.114;13.914;2023-08-06T10:33:59;3.50;;;3.20;;
18677;SDS011;9469;51.114;13.914;2023-08-06T10:39:08;3.43;;;2.87;;
18677;SDS011;9469;51.114;13.914;2023-08-06T10:44:31;3.60;;;3.30;;
18677;SDS011;9469;51.114;13.914;2023-08-06T10:49:43;5.67;;;3.93;;
18677;SDS011;9469;51.114;13.914;2023-08-06T10:54:53;4.80;;;4.30;;
18677;SDS011;9469;51.114;13.914;2023-08-06T10:59:59;4.00;;;3.60;;
18677;SDS011;9469;51.114;13.914;2023-08-06T11:05:17;3.87;;;3.57;;
18677;SDS011;9469;51.114;13.914;2023-08-06T11:10:25;4.40;;;4.00;;
18677;SDS011;9469;51.114;13.914;2023-08-06T11:15:32;5.17;;;4.00;;
18677;SDS011;9469;51.114;13.914;2023-08-06T11:20:39;4.83;;;3.77;;
18677;SDS011;9469;51.114;13.914;2023-08-06T11:25:47;6.27;;;4.30;;
18677;SDS011;9469;51.114;13.914;2023-08-06T11:30:56;4.13;;;3.80;;
18677;SDS011;9469;51.114;13.914;2023-08-06T11:36:04;4.77;;;4.03;;
18677;SDS011;9469;51.114;13.914;2023-08-06T11:41:12;4.00;;;3.67;;
18677;SDS011;9469;51.114;13.914;2023-08-06T11:46:17;4.20;;;3.77;;
18677;SDS011;9469;51.114;13.914;2023-08-06T11:51:25;4.83;;;4.13;;
18677;SDS011;9469;51.114;13.914;2023-08-06T11:56:32;4.40;;;3.83;;
18677;SDS011;9469;51.114;13.914;2023-08-06T12:01:39;4.10;;;3.80;;
18677;SDS011;9469;51.114;13.914;2023-08-06T12:06:45;3.77;;;3.47;;
18677;SDS011;9469;51.114;13.914;2023-08-06T12:11:55;3.90;;;3.60;;
18677;SDS011;9469;51.114;13.914;2023-08-06T12:17:00;4.73;;;3.90;;
18677;SDS011;9469;51.114;13.914;2023-08-06T12:22:06;3.63;;;3.33;;
18677;SDS011;9469;51.114;13.914;2023-08-06T12:27:14;4.50;;;3.77;;
18677;SDS011;9469;51.114;13.914;2023-08-06T12:32:21;4.63;;;3.17;;
18677;SDS011;9469;51.114;13.914;2023-08-06T12:37:27;6.63;;;4.03;;
18677;SDS011;9469;51.114;13.914;2023-08-06T12:42:36;4.80;;;3.93;;
18677;SDS011;9469;51.114;13.914;2023-08-06T12:47:41;5.50;;;4.43;;
18677;SDS011;9469;51.114;13.914;2023-08-06T12:52:46;6.43;;;4.43;;
18677;SDS011;9469;51.114;13.914;2023-08-06T12:57:54;4.13;;;3.70;;
18677;SDS011;9469;51.114;13.914;2023-08-06T13:03:04;4.10;;;3.70;;
18677;SDS011;9469;51.114;13.914;2023-08-06T13:08:10;5.30;;;4.30;;
18677;SDS011;9469;51.114;13.914;2023-08-06T13:13:18;5.40;;;4.53;;
18677;SDS011;9469;51.114;13.914;2023-08-06T13:18:23;4.43;;;4.03;;
18677;SDS011;9469;51.114;13.914;2023-08-06T13:23:29;4.33;;;3.60;;
18677;SDS011;9469;51.114;13.914;2023-08-06T13:28:37;5.20;;;4.57;;
18677;SDS011;9469;51.114;13.914;2023-08-06T13:33:51;7.10;;;4.00;;
18677;SDS011;9469;51.114;13.914;2023-08-06T13:38:59;4.60;;;4.20;;
18677;SDS011;9469;51.114;13.914;2023-08-06T13:44:07;4.93;;;4.37;;
18677;SDS011;9469;51.114;13.914;2023-08-06T13:49:13;5.33;;;4.83;;
18677;SDS011;9469;51.114;13.914;2023-08-06T13:54:18;4.47;;;4.07;;
18677;SDS011;9469;51.114;13.914;2023-08-06T13:59:27;5.30;;;4.80;;
18677;SDS011;9469;51.114;13.914;2023-08-06T14:04:32;6.57;;;5.97;;
18677;SDS011;9469;51.114;13.914;2023-08-06T14:09:39;5.07;;;4.67;;
18677;SDS011;9469;51.114;13.914;2023-08-06T14:14:48;5.37;;;4.37;;
18677;SDS011;9469;51.114;13.914;2023-08-06T14:19:56;5.33;;;4.93;;
18677;SDS011;9469;51.114;13.914;2023-08-06T14:25:05;7.20;;;5.10;;
18677;SDS011;9469;51.114;13.914;2023-08-06T14:30:14;7.30;;;5.97;;
18677;SDS011;9469;51.114;13.914;2023-08-06T14:35:19;6.40;;;5.80;;
18677;SDS011;9469;51.114;13.914;2023-08-06T14:40:24;6.53;;;5.93;;
18677;SDS011;9469;51.114;13.914;2023-08-06T14:45:39;8.17;;;5.83;;
18677;SDS011;9469;51.114;13.914;2023-08-06T14:50:45;7.13;;;6.43;;
18677;SDS011;9469;51.114;13.914;2023-08-06T14:55:56;7.17;;;6.50;;
18677;SDS011;9469;51.114;13.914;2023-08-06T15:01:04;7.37;;;6.50;;
18677;SDS011;9469;51.114;13.914;2023-08-06T15:06:10;6.53;;;5.93;;
18677;SDS011;9469;51.114;13.914;2023-08-06T15:11:19;8.00;;;7.20;;
18677;SDS011;9469;51.114;13.914;2023-08-06T15:16:29;8.10;;;7.23;;
18677;SDS011;9469;51.114;13.914;2023-08-06T15:21:36;7.70;;;7.00;;
18677;SDS011;9469;51.114;13.914;2023-08-06T15:32:01;6.73;;;6.13;;
18677;SDS011;9469;51.114;13.914;2023-08-06T15:37:06;7.53;;;6.87;;
18677;SDS011;9469;51.114;13.914;2023-08-06T15:42:13;7.87;;;7.07;;
18677;SDS011;9469;51.114;13.914;2023-08-06T15:47:21;7.40;;;6.77;;
18677;SDS011;9469;51.114;13.914;2023-08-06T15:52:29;7.10;;;6.40;;
18677;SDS011;9469;51.114;13.914;2023-08-06T15:57:35;7.97;;;7.17;;
18677;SDS011;9469;51.114;13.914;2023-08-06T16:02:44;9.13;;;8.17;;
18677;SDS011;9469;51.114;13.914;2023-08-06T16:07:53;8.90;;;8.10;;
18677;SDS011;9469;51.114;13.914;2023-08-06T16:13:01;9.87;;;8.03;;
18677;SDS011;9469;51.114;13.914;2023-08-06T16:18:10;8.27;;;6.50;;
18677;SDS011;9469;51.114;13.914;2023-08-06T16:23:18;6.43;;;5.33;;
18677;SDS011;9469;51.114;13.914;2023-08-06T16:28:24;5.70;;;5.20;;
18677;SDS011;9469;51.114;13.914;2023-08-06T16:33:34;8.53;;;5.30;;
18677;SDS011;9469;51.114;13.914;2023-08-06T16:38:40;6.90;;;6.00;;
18677;SDS011;9469;51.114;13.914;2023-08-06T16:43:47;6.93;;;5.67;;
18677;SDS011;9469;51.114;13.914;2023-08-06T16:48:55;5.93;;;4.60;;
18677;SDS011;9469;51.114;13.914;2023-08-06T16:54:01;5.83;;;4.33;;
18677;SDS011;9469;51.114;13.914;2023-08-06T16:59:08;3.97;;;3.67;;
18677;SDS011;9469;51.114;13.914;2023-08-06T17:04:16;4.43;;;4.03;;
18677;SDS011;9469;51.114;13.914;2023-08-06T17:09:22;3.73;;;3.43;;
18677;SDS011;9469;51.114;13.914;2023-08-06T17:14:28;4.10;;;3.70;;
18677;SDS011;9469;51.114;13.914;2023-08-06T17:19:36;5.87;;;4.93;;
18677;SDS011;9469;51.114;13.914;2023-08-06T17:24:42;6.30;;;5.50;;
18677;SDS011;9469;51.114;13.914;2023-08-06T17:29:48;5.17;;;4.67;;
18677;SDS011;9469;51.114;13.914;2023-08-06T17:34:55;5.40;;;4.90;;
18677;SDS011;9469;51.114;13.914;2023-08-06T17:40:01;6.33;;;5.03;;
18677;SDS011;9469;51.114;13.914;2023-08-06T17:45:08;6.10;;;4.97;;
18677;SDS011;9469;51.114;13.914;2023-08-06T17:50:17;6.07;;;5.00;;
18677;SDS011;9469;51.114;13.914;2023-08-06T17:55:27;4.70;;;4.30;;
18677;SDS011;9469;51.114;13.914;2023-08-06T18:00:32;9.03;;;4.37;;
18677;SDS011;9469;51.114;13.914;2023-08-06T18:05:41;4.97;;;4.13;;
18677;SDS011;9469;51.114;13.914;2023-08-06T18:10:47;5.87;;;5.27;;
18677;SDS011;9469;51.114;13.914;2023-08-06T18:15:59;5.53;;;4.13;;
18677;SDS011;9469;51.114;13.914;2023-08-06T18:21:07;5.50;;;4.63;;
18677;SDS011;9469;51.114;13.914;2023-08-06T18:26:13;4.53;;;4.13;;
18677;SDS011;9469;51.114;13.914;2023-08-06T18:31:19;5.30;;;4.40;;
18677;SDS011;9469;51.114;13.914;2023-08-06T18:36:27;5.17;;;4.13;;
18677;SDS011;9469;51.114;13.914;2023-08-06T18:41:37;6.83;;;5.10;;
18677;SDS011;9469;51.114;13.914;2023-08-06T18:46:43;6.40;;;4.77;;
18677;SDS011;9469;51.114;13.914;2023-08-06T18:51:51;8.47;;;5.10;;
18677;SDS011;9469;51.114;13.914;2023-08-06T18:57:00;5.13;;;4.60;;
18677;SDS011;9469;51.114;13.914;2023-08-06T19:02:06;4.17;;;3.87;;
18677;SDS011;9469;51.114;13.914;2023-08-06T19:07:14;3.93;;;3.53;;
18677;SDS011;9469;51.114;13.914;2023-08-06T19:12:19;3.93;;;3.30;;
18677;SDS011;9469;51.114;13.914;2023-08-06T19:17:26;4.87;;;3.87;;
18677;SDS011;9469;51.114;13.914;2023-08-06T19:22:34;3.17;;;2.87;;
18677;SDS011;9469;51.114;13.914;2023-08-06T19:27:40;4.83;;;3.10;;
18677;SDS011;9469;51.114;13.914;2023-08-06T19:32:48;3.50;;;2.30;;
18677;SDS011;9469;51.114;13.914;2023-08-06T19:37:58;2.53;;;2.07;;
18677;SDS011;9469;51.114;13.914;2023-08-06T19:43:03;1.97;;;1.80;;
18677;SDS011;9469;51.114;13.914;2023-08-06T19:48:09;1.97;;;1.80;;
18677;SDS011;9469;51.114;13.914;2023-08-06T19:53:17;3.07;;;2.10;;
18677;SDS011;9469;51.114;13.914;2023-08-06T19:58:25;3.30;;;2.23;;
18677;SDS011;9469;51.114;13.914;2023-08-06T20:03:33;2.77;;;2.23;;
18677;SDS011;9469;51.114;13.914;2023-08-06T20:08:47;3.47;;;2.20;;
18677;SDS011;9469;51.114;13.914;2023-08-06T20:13:53;1.60;;;1.50;;
18677;SDS011;9469;51.114;13.914;2023-08-06T20:18:58;2.43;;;1.97;;
18677;SDS011;9469;51.114;13.914;2023-08-06T20:24:07;2.97;;;1.87;;
18677;SDS011;9469;51.114;13.914;2023-08-06T20:29:12;3.63;;;1.87;;
18677;SDS011;9469;51.114;13.914;2023-08-06T20:34:17;1.90;;;1.70;;
18677;SDS011;9469;51.114;13.914;2023-08-06T20:39:26;2.40;;;1.80;;
18677;SDS011;9469;51.114;13.914;2023-08-06T20:44:32;2.87;;;1.80;;
18677;SDS011;9469;51.114;13.914;2023-08-06T20:49:39;2.37;;;2.10;;
18677;SDS011;9469;51.114;13.914;2023-08-06T20:54:47;2.63;;;2.43;;
18677;SDS011;9469;51.114;13.914;2023-08-06T20:59:52;3.33;;;2.27;;
18677;SDS011;9469;51.114;13.914;2023-08-06T21:05:00;2.40;;;2.20;;
18677;SDS011;9469;51.114;13.914;2023-08-06T21:10:09;2.27;;;2.00;;
18677;SDS011;9469;51.114;13.914;2023-08-06T21:15:16;2.13;;;1.97;;
18677;SDS011;9469;51.114;13.914;2023-08-06T21:20:21;2.53;;;2.20;;
18677;SDS011;9469;51.114;13.914;2023-08-06T21:25:31;2.43;;;2.20;;
18677;SDS011;9469;51.114;13.914;2023-08-06T21:30:36;3.40;;;2.77;;
18677;SDS011;9469;51.114;13.914;2023-08-06T21:35:41;4.50;;;2.63;;
18677;SDS011;9469;51.114;13.914;2023-08-06T21:40:49;2.87;;;2.43;;
18677;SDS011;9469;51.114;13.914;2023-08-06T21:45:54;3.47;;;2.33;;
18677;SDS011;9469;51.114;13.914;2023-08-06T21:51:00;4.33;;;2.30;;
18677;SDS011;9469;51.114;13.914;2023-08-06T21:56:10;2.50;;;2.10;;
18677;SDS011;9469;51.114;13.914;2023-08-06T22:01:16;4.13;;;2.20;;
18677;SDS011;9469;51.114;13.914;2023-08-06T22:06:33;3.60;;;2.33;;
18677;SDS011;9469;51.114;13.914;2023-08-06T22:11:41;3.80;;;2.70;;
18677;SDS011;9469;51.114;13.914;2023-08-06T22:16:46;4.33;;;2.23;;
18677;SDS011;9469;51.114;13.914;2023-08-06T22:21:51;3.30;;;2.27;;
18677;SDS011;9469;51.114;13.914;2023-08-06T22:26:59;3.00;;;2.10;;
18677;SDS011;9469;51.114;13.914;2023-08-06T22:32:06;3.57;;;2.57;;
18677;SDS011;9469;51.114;13.914;2023-08-06T22:37:13;6.60;;;2.90;;
18677;SDS011;9469;51.114;13.914;2023-08-06T22:42:22;2.67;;;2.43;;
18677;SDS011;9469;51.114;13.914;2023-08-06T22:47:28;4.80;;;2.93;;
18677;SDS011;9469;51.114;13.914;2023-08-06T22:52:33;4.40;;;2.60;;
18677;SDS011;9469;51.114;13.914;2023-08-06T22:57:41;4.70;;;2.53;;
18677;SDS011;9469;51.114;13.914;2023-08-06T23:02:46;2.83;;;2.47;;
18677;SDS011;9469;51.114;13.914;2023-08-06T23:08:08;2.63;;;2.40;;
18677;SDS011;9469;51.114;13.914;2023-08-06T23:13:16;3.67;;;2.40;;
18677;SDS011;9469;51.114;13.914;2023-08-06T23:18:21;3.37;;;2.67;;
18677;SDS011;9469;51.114;13.914;2023-08-06T23:23:26;2.73;;;2.50;;
18677;SDS011;9469;51.114;13.914;2023-08-06T23:28:34;2.67;;;2.43;;
18677;SDS011;9469;51.114;13.914;2023-08-06T23:33:40;3.40;;;3.10;;
18677;SDS011;9469;51.114;13.914;2023-08-06T23:38:45;4.70;;;3.70;;
18677;SDS011;9469;51.114;13.914;2023-08-06T23:43:54;4.33;;;3.80;;
18677;SDS011;9469;51.114;13.914;2023-08-06T23:49:00;4.03;;;3.63;;
18677;SDS011;9469;51.114;13.914;2023-08-06T23:54:05;4.40;;;3.77;;
18677;SDS011;9469;51.114;13.914;2023-08-06T23:59:13;5.33;;;3.93;;
